Terminal Aerodrome Forecast
Issued by NWS Jackson, MS

Home | Current Version | Previous Version | Text Only | Print | Product List | Glossary On
Versions: 1 2 3 4 5 6 7 8 9 10 11 12 13 14
000
FTUS44 KMEG 180530
TAFTUP
TAF
KTUP 180530Z 1806/1906 21005KT P6SM FEW045
      TEMPO 1810/1813 6SM BR SCT015
     FM181300 28004KT P6SM BKN015 BKN250
     FM181500 30005KT P6SM BKN035 BKN250
     FM181800 32006KT P6SM SCT050 SCT250
     FM190100 00000KT P6SM FEW250=

USA.gov is the U.S. government's official web portal to all federal, state and local government web resources and services.